Time;durP1;ratioP1;P1;durP2;ratioP2;P2;SDS_P1;SDS_P2;PMS_P1;PMS_P2;Temp;Humidity;BMP_temperature;BMP_pressure;BME280_temperature;BME280_humidity;BME280_pressure;Samples;Min_cycle;Max_cycle;Signal;HPM_P1;HPM_P2
2022/01/01 00:00:33;;;;;;;;;;;21.30;38.50;;;;;;489694;242;1130;-76
2022/01/01 00:02:33;;;;;;;;;;;21.10;38.60;;;;;;489751;242;1576;-76
2022/01/01 00:04:34;;;;;;;;;;;20.90;39.10;;;;;;489699;242;968;-76
2022/01/01 00:06:35;;;;;;;;;;;21.00;39.10;;;;;;489708;242;1305;-76
2022/01/01 00:08:37;;;;;;;;;;;20.80;39.30;;;;;;489667;242;987;-76
2022/01/01 00:10:38;;;;;;;;;;;21.00;39.00;;;;;;489661;242;1208;-76
2022/01/01 00:12:39;;;;;;;;;;;21.20;39.00;;;;;;489669;242;1215;-76
2022/01/01 00:14:41;;;;;;;;;;;21.10;38.80;;;;;;489681;242;970;-76
2022/01/01 00:16:42;;;;;;;;;;;21.00;38.70;;;;;;489618;242;1297;-76
2022/01/01 00:18:43;;;;;;;;;;;21.20;38.60;;;;;;489775;242;2169;-76
2022/01/01 00:20:45;;;;;;;;;;;21.20;38.60;;;;;;489671;242;1379;-76
2022/01/01 00:22:46;;;;;;;;;;;20.90;39.20;;;;;;489610;242;1110;-76
2022/01/01 00:24:47;;;;;;;;;;;20.80;39.30;;;;;;489721;242;953;-76
2022/01/01 00:26:49;;;;;;;;;;;21.20;38.90;;;;;;489626;242;1306;-76
2022/01/01 00:28:50;;;;;;;;;;;21.10;39.00;;;;;;489755;242;939;-76
2022/01/01 00:30:51;;;;;;;;;;;21.10;39.00;;;;;;489686;242;1251;-76
2022/01/01 00:32:53;;;;;;;;;;;21.00;38.80;;;;;;489677;242;1064;-76
2022/01/01 00:34:54;;;;;;;;;;;21.00;38.90;;;;;;489704;242;995;-76
2022/01/01 00:36:55;;;;;;;;;;;20.90;39.20;;;;;;489623;242;1160;-76
2022/01/01 00:38:57;;;;;;;;;;;21.00;39.00;;;;;;489702;242;2180;-76
2022/01/01 00:40:58;;;;;;;;;;;20.90;39.10;;;;;;489621;242;1218;-76
2022/01/01 00:42:59;;;;;;;;;;;20.80;39.00;;;;;;489630;242;1092;-76
2022/01/01 00:45:01;;;;;;;;;;;20.60;39.40;;;;;;489685;242;939;-76
2022/01/01 00:47:02;;;;;;;;;;;20.80;39.20;;;;;;489683;242;1148;-76
2022/01/01 00:49:03;;;;;;;;;;;20.80;39.50;;;;;;489763;242;1180;-76
2022/01/01 00:51:05;;;;;;;;;;;21.40;38.50;;;;;;489662;242;1223;-76
2022/01/01 00:53:06;;;;;;;;;;;21.00;38.90;;;;;;489791;242;964;-76
2022/01/01 00:55:07;;;;;;;;;;;21.20;38.70;;;;;;489669;242;1059;-76
2022/01/01 00:57:09;;;;;;;;;;;21.20;38.70;;;;;;489671;242;1191;-76
2022/01/01 00:59:10;;;;;;;;;;;21.10;38.50;;;;;;489670;242;2188;-76
2022/01/01 01:01:11;;;;;;;;;;;21.00;39.00;;;;;;489618;242;1147;-76
2022/01/01 01:03:13;;;;;;;;;;;21.10;38.80;;;;;;489631;242;977;-76
2022/01/01 01:05:14;;;;;;;;;;;21.20;38.90;;;;;;489711;242;945;-76
2022/01/01 01:07:15;;;;;;;;;;;20.80;39.10;;;;;;489590;242;1059;-76
2022/01/01 01:09:17;;;;;;;;;;;21.30;38.40;;;;;;489723;242;943;-76
2022/01/01 01:11:18;;;;;;;;;;;20.90;38.90;;;;;;489580;242;1155;-76
2022/01/01 01:13:20;;;;;;;;;;;21.30;38.40;;;;;;489689;242;939;-76
2022/01/01 01:15:20;;;;;;;;;;;21.10;38.40;;;;;;489887;242;1398;-76
2022/01/01 01:17:22;;;;;;;;;;;21.10;38.90;;;;;;489615;242;1138;-76
2022/01/01 01:19:23;;;;;;;;;;;21.10;39.00;;;;;;489659;242;2122;-76
2022/01/01 01:21:25;;;;;;;;;;;21.00;39.10;;;;;;489581;242;1241;-76
2022/01/01 01:23:26;;;;;;;;;;;21.20;38.30;;;;;;489631;242;978;-76
2022/01/01 01:25:29;;;;;;;;;;;21.10;38.70;;;;;;489699;242;1407;-76
2022/01/01 01:27:29;;;;;;;;;;;20.80;39.10;;;;;;489584;242;1415;-76
2022/01/01 01:29:31;;;;;;;;;;;20.80;39.20;;;;;;489700;242;1422;-76
2022/01/01 01:31:32;;;;;;;;;;;20.90;39.00;;;;;;489699;242;1410;-75
2022/01/01 01:33:33;;;;;;;;;;;21.10;39.00;;;;;;489730;242;974;-76
2022/01/01 01:35:34;;;;;;;;;;;20.80;39.20;;;;;;489750;242;1009;-76
2022/01/01 01:37:36;;;;;;;;;;;20.90;39.40;;;;;;489639;242;1107;-76
2022/01/01 01:39:37;;;;;;;;;;;20.70;39.30;;;;;;489691;242;2173;-76
2022/01/01 01:41:38;;;;;;;;;;;21.00;38.90;;;;;;489644;242;1175;-76
2022/01/01 01:43:40;;;;;;;;;;;20.90;39.00;;;;;;489697;242;964;-76
2022/01/01 01:45:43;;;;;;;;;;;21.10;39.00;;;;;;489616;242;1194;-76
2022/01/01 01:47:42;;;;;;;;;;;21.20;38.70;;;;;;489625;242;1480;-76
2022/01/01 01:49:44;;;;;;;;;;;21.10;38.50;;;;;;489654;242;963;-76
2022/01/01 01:51:45;;;;;;;;;;;21.10;38.70;;;;;;489567;242;1356;-76
2022/01/01 01:53:46;;;;;;;;;;;20.70;39.20;;;;;;489651;242;945;-76
2022/01/01 01:55:48;;;;;;;;;;;20.90;39.20;;;;;;489613;242;1284;-76
2022/01/01 01:57:49;;;;;;;;;;;20.70;39.50;;;;;;489728;242;1048;-76
2022/01/01 01:59:50;;;;;;;;;;;20.90;39.10;;;;;;489694;242;2185;-76
2022/01/01 02:01:52;;;;;;;;;;;21.00;38.80;;;;;;489633;242;1192;-76
2022/01/01 02:03:56;;;;;;;;;;;21.30;38.70;;;;;;489686;242;1076;-76
2022/01/01 02:05:55;;;;;;;;;;;21.20;38.40;;;;;;489659;242;1414;-76
2022/01/01 02:07:57;;;;;;;;;;;21.20;38.50;;;;;;489590;242;1167;-76
2022/01/01 02:09:58;;;;;;;;;;;21.00;38.80;;;;;;489693;242;958;-76
2022/01/01 02:12:00;;;;;;;;;;;21.00;38.90;;;;;;489667;242;1214;-76
2022/01/01 02:14:13;;;;;;;;;;;20.80;39.00;;;;;;489686;242;1119;-76
2022/01/01 02:16:13;;;;;;;;;;;20.70;39.40;;;;;;489787;242;1528;-76
2022/01/01 02:18:13;;;;;;;;;;;20.90;39.10;;;;;;489792;242;2184;-76
2022/01/01 02:20:15;;;;;;;;;;;20.90;38.70;;;;;;489705;242;1042;-76
2022/01/01 02:22:16;;;;;;;;;;;21.00;38.80;;;;;;489674;242;1070;-76
2022/01/01 02:24:17;;;;;;;;;;;21.40;38.40;;;;;;489734;242;1153;-76
2022/01/01 02:26:19;;;;;;;;;;;21.30;38.30;;;;;;489597;242;1286;-76
2022/01/01 02:28:20;;;;;;;;;;;21.00;38.60;;;;;;489783;242;1095;-76
2022/01/01 02:30:21;;;;;;;;;;;20.70;39.10;;;;;;489666;242;1171;-76
2022/01/01 02:32:23;;;;;;;;;;;20.90;38.70;;;;;;489525;242;1125;-76
2022/01/01 02:34:24;;;;;;;;;;;20.80;39.10;;;;;;489691;242;998;-76
2022/01/01 02:36:25;;;;;;;;;;;20.90;39.00;;;;;;489600;242;1084;-76
2022/01/01 02:38:27;;;;;;;;;;;21.10;38.80;;;;;;489727;242;2181;-76
2022/01/01 02:40:28;;;;;;;;;;;20.80;38.90;;;;;;489651;242;1183;-76
2022/01/01 02:42:29;;;;;;;;;;;20.90;39.10;;;;;;489654;242;1112;-76
2022/01/01 02:44:31;;;;;;;;;;;21.00;38.50;;;;;;489653;242;955;-76
2022/01/01 02:46:32;;;;;;;;;;;20.60;39.20;;;;;;489599;242;1205;-76
2022/01/01 02:48:33;;;;;;;;;;;20.70;39.30;;;;;;489655;242;1081;-76
2022/01/01 02:50:35;;;;;;;;;;;20.60;39.40;;;;;;489629;242;1214;-76
2022/01/01 02:52:36;;;;;;;;;;;20.70;39.50;;;;;;489568;242;1210;-76
2022/01/01 02:54:37;;;;;;;;;;;20.70;39.40;;;;;;489688;242;975;-76
2022/01/01 02:56:39;;;;;;;;;;;20.80;39.20;;;;;;489534;242;1196;-76
2022/01/01 02:58:40;;;;;;;;;;;21.00;39.00;;;;;;489620;242;2200;-76
2022/01/01 03:00:41;;;;;;;;;;;21.50;38.00;;;;;;489615;242;1195;-76
2022/01/01 03:02:45;;;;;;;;;;;21.40;38.10;;;;;;489553;242;1284;-76
2022/01/01 03:04:44;;;;;;;;;;;21.00;38.30;;;;;;489690;242;1431;-76
2022/01/01 03:06:52;;;;;;;;;;;21.00;38.60;;;;;;489550;242;1461;-76
2022/01/01 03:08:47;;;;;;;;;;;21.10;38.80;;;;;;490024;242;1556;-76
2022/01/01 03:10:49;;;;;;;;;;;20.90;38.80;;;;;;489620;242;1215;-76
2022/01/01 03:12:49;;;;;;;;;;;20.90;38.70;;;;;;489756;242;1404;-76
2022/01/01 03:14:51;;;;;;;;;;;20.80;38.70;;;;;;489645;242;1191;-76
2022/01/01 03:16:52;;;;;;;;;;;21.30;38.30;;;;;;489601;242;1208;-76
2022/01/01 03:18:53;;;;;;;;;;;21.40;38.10;;;;;;489631;242;2200;-76
2022/01/01 03:20:55;;;;;;;;;;;21.00;38.50;;;;;;489563;242;1310;-76
2022/01/01 03:22:56;;;;;;;;;;;20.70;38.90;;;;;;489682;242;1040;-76
2022/01/01 03:24:57;;;;;;;;;;;21.00;38.50;;;;;;489690;242;946;-76
2022/01/01 03:26:59;;;;;;;;;;;20.70;39.00;;;;;;489607;242;1142;-76
2022/01/01 03:29:00;;;;;;;;;;;21.00;38.90;;;;;;489687;242;1120;-76
2022/01/01 03:31:01;;;;;;;;;;;20.90;38.80;;;;;;489681;242;1182;-76
2022/01/01 03:33:03;;;;;;;;;;;21.00;38.80;;;;;;489724;242;1240;-76
2022/01/01 03:35:04;;;;;;;;;;;21.00;38.50;;;;;;489692;242;922;-76
2022/01/01 03:37:05;;;;;;;;;;;20.70;39.00;;;;;;489621;242;1199;-76
2022/01/01 03:39:07;;;;;;;;;;;20.80;38.60;;;;;;489685;242;2189;-76
2022/01/01 03:41:08;;;;;;;;;;;20.90;38.80;;;;;;489560;242;1189;-76
2022/01/01 03:43:09;;;;;;;;;;;20.60;39.10;;;;;;489592;242;1173;-76
2022/01/01 03:45:11;;;;;;;;;;;20.90;38.90;;;;;;489636;242;1040;-76
2022/01/01 03:47:12;;;;;;;;;;;20.90;38.60;;;;;;489635;242;1348;-76
2022/01/01 03:49:13;;;;;;;;;;;21.00;38.70;;;;;;489801;242;1070;-76
2022/01/01 03:51:15;;;;;;;;;;;20.90;39.00;;;;;;489640;242;1196;-76
2022/01/01 03:53:16;;;;;;;;;;;21.00;38.80;;;;;;489617;242;1058;-76
2022/01/01 03:55:18;;;;;;;;;;;20.70;39.00;;;;;;489714;242;963;-76
2022/01/01 03:57:20;;;;;;;;;;;20.60;39.10;;;;;;489556;242;1064;-76
2022/01/01 03:59:21;;;;;;;;;;;20.60;39.50;;;;;;489663;242;2188;-76
2022/01/01 04:01:22;;;;;;;;;;;20.50;39.40;;;;;;489597;242;1289;-76
2022/01/01 04:03:23;;;;;;;;;;;20.70;39.10;;;;;;489689;242;1177;-76
2022/01/01 04:05:25;;;;;;;;;;;20.90;39.20;;;;;;489700;242;959;-76
2022/01/01 04:07:26;;;;;;;;;;;21.20;38.60;;;;;;489741;242;1069;-76
2022/01/01 04:09:27;;;;;;;;;;;21.10;38.50;;;;;;489717;242;944;-76
2022/01/01 04:11:29;;;;;;;;;;;20.80;38.70;;;;;;489613;242;1416;-76
2022/01/01 04:13:30;;;;;;;;;;;20.90;38.70;;;;;;489624;242;1014;-75
2022/01/01 04:15:31;;;;;;;;;;;20.80;39.10;;;;;;489696;242;1215;-76
2022/01/01 04:17:36;;;;;;;;;;;20.60;39.10;;;;;;489674;242;1125;-76
2022/01/01 04:19:39;;;;;;;;;;;20.80;39.30;;;;;;489877;242;2197;-76
2022/01/01 04:21:37;;;;;;;;;;;20.70;39.10;;;;;;489669;242;1413;-76
2022/01/01 04:23:39;;;;;;;;;;;21.10;38.60;;;;;;489612;242;1107;-76
2022/01/01 04:25:40;;;;;;;;;;;20.80;38.60;;;;;;489633;242;1216;-76
2022/01/01 04:27:41;;;;;;;;;;;21.30;38.40;;;;;;489653;242;1097;-76
2022/01/01 04:29:44;;;;;;;;;;;21.00;38.40;;;;;;489652;242;1165;-76
2022/01/01 04:31:44;;;;;;;;;;;21.00;38.50;;;;;;489581;242;1510;-76
2022/01/01 04:33:45;;;;;;;;;;;20.70;39.00;;;;;;489626;242;1159;-76
2022/01/01 04:35:46;;;;;;;;;;;21.10;38.70;;;;;;489606;242;1159;-76
2022/01/01 04:37:48;;;;;;;;;;;21.10;38.40;;;;;;489563;242;1068;-76
2022/01/01 04:39:54;;;;;;;;;;;21.00;38.50;;;;;;489847;242;2118;-76
2022/01/01 04:41:51;;;;;;;;;;;21.10;38.80;;;;;;489730;242;1409;-76
2022/01/01 04:43:52;;;;;;;;;;;20.90;38.60;;;;;;489708;242;1120;-76
2022/01/01 04:45:53;;;;;;;;;;;20.90;38.80;;;;;;489608;242;1198;-75
2022/01/01 04:47:55;;;;;;;;;;;20.70;38.90;;;;;;489575;242;1080;-76
2022/01/01 04:49:56;;;;;;;;;;;20.80;38.90;;;;;;489835;242;1192;-76
2022/01/01 04:51:57;;;;;;;;;;;20.60;39.10;;;;;;489595;242;1324;-76
2022/01/01 04:54:01;;;;;;;;;;;20.90;38.60;;;;;;489814;242;1128;-76
2022/01/01 04:56:05;;;;;;;;;;;20.80;38.90;;;;;;489758;242;1398;-76
2022/01/01 04:58:02;;;;;;;;;;;21.10;38.60;;;;;;489861;242;1288;-76
2022/01/01 05:00:03;;;;;;;;;;;20.80;38.60;;;;;;489676;242;2110;-76
2022/01/01 05:02:05;;;;;;;;;;;21.00;38.60;;;;;;489540;242;1111;-76
2022/01/01 05:04:06;;;;;;;;;;;20.90;38.40;;;;;;489678;242;1188;-76
2022/01/01 05:06:07;;;;;;;;;;;20.70;39.00;;;;;;489593;242;1164;-76
2022/01/01 05:08:09;;;;;;;;;;;20.60;38.90;;;;;;489681;242;1132;-76
2022/01/01 05:10:10;;;;;;;;;;;20.60;38.90;;;;;;489684;242;1006;-76
2022/01/01 05:12:11;;;;;;;;;;;20.70;38.90;;;;;;489589;242;1122;-76
2022/01/01 05:14:13;;;;;;;;;;;21.20;37.90;;;;;;489687;242;1097;-76
2022/01/01 05:16:17;;;;;;;;;;;20.90;38.20;;;;;;489606;242;1240;-76
2022/01/01 05:18:16;;;;;;;;;;;20.80;38.40;;;;;;489830;242;1396;-76
2022/01/01 05:20:17;;;;;;;;;;;20.80;38.40;;;;;;489678;242;2192;-76
2022/01/01 05:22:18;;;;;;;;;;;20.80;38.60;;;;;;489680;242;1117;-76
2022/01/01 05:24:21;;;;;;;;;;;20.70;38.70;;;;;;489695;242;1039;-76
2022/01/01 05:26:21;;;;;;;;;;;20.50;38.80;;;;;;489628;242;1380;-76
2022/01/01 05:28:22;;;;;;;;;;;20.80;38.60;;;;;;489709;242;1273;-76
2022/01/01 05:30:24;;;;;;;;;;;20.90;38.30;;;;;;489669;242;1160;-76
2022/01/01 05:32:25;;;;;;;;;;;20.90;38.30;;;;;;489738;242;1172;-75
2022/01/01 05:34:26;;;;;;;;;;;21.10;38.00;;;;;;489821;242;1144;-75
2022/01/01 05:36:28;;;;;;;;;;;20.90;37.90;;;;;;489661;242;1173;-76
2022/01/01 05:38:29;;;;;;;;;;;20.80;38.40;;;;;;489616;242;1114;-75
2022/01/01 05:40:30;;;;;;;;;;;20.70;38.50;;;;;;489854;242;2122;-76
2022/01/01 05:42:32;;;;;;;;;;;20.60;38.60;;;;;;489766;242;1170;-76
2022/01/01 05:44:33;;;;;;;;;;;20.70;38.40;;;;;;489681;242;1012;-76
2022/01/01 05:46:35;;;;;;;;;;;20.70;38.10;;;;;;489653;242;1279;-76
2022/01/01 05:48:38;;;;;;;;;;;20.80;38.20;;;;;;489711;242;966;-76
2022/01/01 05:50:37;;;;;;;;;;;20.60;38.20;;;;;;489710;242;1434;-76
2022/01/01 05:52:38;;;;;;;;;;;20.70;38.30;;;;;;489716;242;1050;-76
2022/01/01 05:54:40;;;;;;;;;;;20.90;37.50;;;;;;489695;242;1051;-76
2022/01/01 05:56:41;;;;;;;;;;;20.70;38.10;;;;;;489582;241;1166;-76
2022/01/01 05:58:42;;;;;;;;;;;20.80;37.70;;;;;;489655;242;1190;-76
2022/01/01 06:00:44;;;;;;;;;;;21.00;37.70;;;;;;489636;242;2193;-76
2022/01/01 06:02:45;;;;;;;;;;;21.00;37.30;;;;;;489742;242;1132;-76
2022/01/01 06:04:46;;;;;;;;;;;21.10;37.30;;;;;;489745;242;1163;-75
2022/01/01 06:06:48;;;;;;;;;;;21.30;36.90;;;;;;489587;242;1150;-76
2022/01/01 06:08:49;;;;;;;;;;;20.80;37.60;;;;;;489716;242;950;-76
2022/01/01 06:10:50;;;;;;;;;;;20.80;37.40;;;;;;489731;242;1259;-76
2022/01/01 06:12:52;;;;;;;;;;;20.80;37.60;;;;;;489600;242;1061;-76
2022/01/01 06:14:53;;;;;;;;;;;20.80;37.60;;;;;;489667;242;954;-76
2022/01/01 06:16:54;;;;;;;;;;;20.80;37.80;;;;;;489652;242;1229;-76
2022/01/01 06:18:56;;;;;;;;;;;20.70;37.70;;;;;;489711;242;950;-76
2022/01/01 06:20:57;;;;;;;;;;;21.10;37.30;;;;;;489614;242;2180;-76
2022/01/01 06:22:58;;;;;;;;;;;20.90;37.10;;;;;;489558;242;1065;-76
2022/01/01 06:25:00;;;;;;;;;;;21.10;37.30;;;;;;489703;242;952;-76
2022/01/01 06:27:01;;;;;;;;;;;20.80;37.40;;;;;;489671;242;1132;-76
2022/01/01 06:29:02;;;;;;;;;;;21.10;36.80;;;;;;489698;242;1004;-76
2022/01/01 06:31:04;;;;;;;;;;;20.80;37.30;;;;;;489835;242;1154;-76
2022/01/01 06:33:05;;;;;;;;;;;20.90;37.20;;;;;;489663;242;1132;-76
2022/01/01 06:35:06;;;;;;;;;;;20.80;37.20;;;;;;489667;242;1177;-76
2022/01/01 06:37:08;;;;;;;;;;;20.80;37.20;;;;;;489607;242;1265;-76
2022/01/01 06:39:09;;;;;;;;;;;20.90;37.20;;;;;;489581;242;1109;-76
2022/01/01 06:41:10;;;;;;;;;;;20.80;37.10;;;;;;489657;242;2185;-76
2022/01/01 06:43:12;;;;;;;;;;;20.70;37.30;;;;;;489776;242;992;-76
2022/01/01 06:45:13;;;;;;;;;;;20.90;37.00;;;;;;489628;242;1024;-76
2022/01/01 06:47:14;;;;;;;;;;;21.00;37.00;;;;;;489705;242;1013;-76
2022/01/01 06:49:16;;;;;;;;;;;21.10;36.60;;;;;;489656;242;956;-76
2022/01/01 06:51:17;;;;;;;;;;;21.20;36.40;;;;;;489640;242;1170;-76
2022/01/01 06:53:18;;;;;;;;;;;20.90;36.70;;;;;;489736;242;1096;-76
2022/01/01 06:55:20;;;;;;;;;;;20.70;37.10;;;;;;489694;242;995;-76
2022/01/01 06:57:21;;;;;;;;;;;20.70;37.00;;;;;;489705;242;1216;-76
2022/01/01 06:59:23;;;;;;;;;;;20.80;36.90;;;;;;489734;242;1044;-76
2022/01/01 07:01:24;;;;;;;;;;;21.10;36.70;;;;;;489597;242;2180;-76
2022/01/01 07:03:25;;;;;;;;;;;21.00;36.30;;;;;;489613;242;1138;-76
2022/01/01 07:05:27;;;;;;;;;;;20.90;36.60;;;;;;489659;242;1129;-76
2022/01/01 07:07:28;;;;;;;;;;;20.80;36.70;;;;;;489637;242;1112;-76
2022/01/01 07:09:29;;;;;;;;;;;21.00;36.40;;;;;;489612;242;1207;-76
2022/01/01 07:11:31;;;;;;;;;;;20.60;36.90;;;;;;489522;242;1238;-76
2022/01/01 07:13:32;;;;;;;;;;;20.70;36.70;;;;;;489621;242;1058;-76
2022/01/01 07:15:33;;;;;;;;;;;20.40;37.20;;;;;;489714;242;1034;-76
2022/01/01 07:17:35;;;;;;;;;;;20.80;36.80;;;;;;489514;242;1304;-76
2022/01/01 07:19:36;;;;;;;;;;;20.90;36.30;;;;;;489745;242;954;-76
2022/01/01 07:21:37;;;;;;;;;;;21.00;36.30;;;;;;489625;242;2109;-76
2022/01/01 07:23:39;;;;;;;;;;;20.80;36.40;;;;;;489703;242;1156;-76
2022/01/01 07:25:40;;;;;;;;;;;20.90;36.10;;;;;;489722;242;1109;-76
2022/01/01 07:27:41;;;;;;;;;;;20.90;36.40;;;;;;489669;242;1228;-76
2022/01/01 07:29:43;;;;;;;;;;;20.70;36.70;;;;;;489752;242;955;-76
2022/01/01 07:31:44;;;;;;;;;;;20.70;36.40;;;;;;489589;242;1300;-76
2022/01/01 07:33:45;;;;;;;;;;;21.30;35.90;;;;;;489681;242;961;-76
2022/01/01 07:35:47;;;;;;;;;;;21.00;35.90;;;;;;489646;242;1182;-76
2022/01/01 07:37:48;;;;;;;;;;;20.80;36.30;;;;;;489578;242;1215;-76
2022/01/01 07:39:49;;;;;;;;;;;20.70;36.20;;;;;;489700;242;937;-76
2022/01/01 07:41:51;;;;;;;;;;;20.50;36.60;;;;;;489571;242;2114;-76
2022/01/01 07:43:52;;;;;;;;;;;20.80;36.60;;;;;;489733;242;1103;-76
2022/01/01 07:45:53;;;;;;;;;;;20.70;36.60;;;;;;489624;242;1239;-76
2022/01/01 07:47:55;;;;;;;;;;;20.90;36.10;;;;;;489634;242;1111;-76
2022/01/01 07:49:56;;;;;;;;;;;21.10;35.90;;;;;;489714;242;1104;-76
2022/01/01 07:51:57;;;;;;;;;;;21.00;36.00;;;;;;489551;242;1272;-76
2022/01/01 07:53:59;;;;;;;;;;;21.00;35.80;;;;;;489775;242;1165;-76
2022/01/01 07:56:00;;;;;;;;;;;20.70;36.20;;;;;;489609;242;1216;-76
2022/01/01 07:58:02;;;;;;;;;;;21.00;36.00;;;;;;489609;242;1147;-76
2022/01/01 08:00:03;;;;;;;;;;;20.60;36.40;;;;;;489645;242;2181;-76
2022/01/01 08:02:04;;;;;;;;;;;20.60;36.50;;;;;;489608;242;1459;-76
2022/01/01 08:04:05;;;;;;;;;;;21.00;36.30;;;;;;489637;242;1027;-76
2022/01/01 08:06:07;;;;;;;;;;;20.60;36.50;;;;;;489679;242;1675;-76
2022/01/01 08:08:08;;;;;;;;;;;20.80;36.70;;;;;;489620;242;1058;-76
2022/01/01 08:10:09;;;;;;;;;;;21.10;35.60;;;;;;489708;242;967;-76
2022/01/01 08:12:11;;;;;;;;;;;20.90;36.10;;;;;;489631;242;1163;-76
2022/01/01 08:14:12;;;;;;;;;;;20.80;36.30;;;;;;489740;242;926;-76
2022/01/01 08:16:13;;;;;;;;;;;20.50;36.70;;;;;;489598;242;1349;-76
2022/01/01 08:18:15;;;;;;;;;;;20.60;36.80;;;;;;489566;242;1068;-76
2022/01/01 08:20:16;;;;;;;;;;;20.50;36.80;;;;;;489621;242;2184;-76
2022/01/01 08:22:17;;;;;;;;;;;20.60;36.70;;;;;;489481;242;1237;-76
2022/01/01 08:24:19;;;;;;;;;;;20.70;36.70;;;;;;489634;242;1006;-76
2022/01/01 08:26:20;;;;;;;;;;;20.80;36.40;;;;;;489595;242;1227;-76
2022/01/01 08:28:21;;;;;;;;;;;20.60;36.90;;;;;;489781;242;1061;-77
2022/01/01 08:30:22;;;;;;;;;;;20.60;36.80;;;;;;489646;242;959;-76
2022/01/01 08:32:24;;;;;;;;;;;20.60;36.80;;;;;;489679;242;1093;-76
2022/01/01 08:34:25;;;;;;;;;;;20.50;37.20;;;;;;489696;242;998;-76
2022/01/01 08:36:27;;;;;;;;;;;20.50;37.30;;;;;;489598;242;1194;-76
2022/01/01 08:38:28;;;;;;;;;;;20.80;37.20;;;;;;489632;242;1143;-76
2022/01/01 08:40:29;;;;;;;;;;;20.50;37.20;;;;;;489646;242;2139;-76
2022/01/01 08:42:30;;;;;;;;;;;20.60;37.30;;;;;;489698;242;1155;-76
2022/01/01 08:44:32;;;;;;;;;;;20.70;37.30;;;;;;489653;242;966;-76
2022/01/01 08:46:33;;;;;;;;;;;20.90;37.20;;;;;;489565;242;1194;-75
2022/01/01 08:48:34;;;;;;;;;;;20.80;37.00;;;;;;489619;242;971;-76
2022/01/01 08:50:36;;;;;;;;;;;20.60;37.40;;;;;;489623;242;965;-75
2022/01/01 08:52:37;;;;;;;;;;;20.50;37.60;;;;;;489688;242;1247;-76
2022/01/01 08:54:38;;;;;;;;;;;20.40;38.10;;;;;;489660;242;961;-76
2022/01/01 08:56:40;;;;;;;;;;;20.90;37.50;;;;;;489585;242;1244;-76
2022/01/01 08:58:41;;;;;;;;;;;20.70;37.70;;;;;;489693;242;987;-76
2022/01/01 09:00:42;;;;;;;;;;;20.60;37.70;;;;;;489630;242;2197;-77
2022/01/01 09:02:44;;;;;;;;;;;20.60;37.80;;;;;;489555;242;1073;-76
2022/01/01 09:04:45;;;;;;;;;;;20.50;38.00;;;;;;489695;242;1103;-76
2022/01/01 09:06:46;;;;;;;;;;;20.80;38.00;;;;;;489536;242;1168;-76
2022/01/01 09:08:48;;;;;;;;;;;20.40;38.20;;;;;;489612;242;1129;-76
2022/01/01 09:10:49;;;;;;;;;;;20.30;38.50;;;;;;489612;242;1239;-76
2022/01/01 09:12:50;;;;;;;;;;;20.50;38.30;;;;;;489692;242;1110;-76
2022/01/01 09:14:52;;;;;;;;;;;20.60;38.00;;;;;;489675;242;951;-76
2022/01/01 09:16:53;;;;;;;;;;;20.50;38.30;;;;;;489621;242;1112;-76
2022/01/01 09:18:54;;;;;;;;;;;20.60;38.30;;;;;;489655;242;1095;-76
2022/01/01 09:20:56;;;;;;;;;;;20.40;38.60;;;;;;489568;242;2166;-76
2022/01/01 09:22:57;;;;;;;;;;;20.50;38.50;;;;;;489523;242;1117;-76
2022/01/01 09:24:58;;;;;;;;;;;20.40;38.60;;;;;;489635;242;944;-76
2022/01/01 09:27:00;;;;;;;;;;;20.60;38.50;;;;;;489604;242;1173;-76
2022/01/01 09:29:01;;;;;;;;;;;20.50;38.40;;;;;;489637;242;1063;-75
2022/01/01 09:31:02;;;;;;;;;;;20.60;38.70;;;;;;489649;242;1314;-76
2022/01/01 09:33:04;;;;;;;;;;;20.40;38.80;;;;;;489743;242;1231;-76
2022/01/01 09:35:05;;;;;;;;;;;20.50;38.70;;;;;;489705;242;1093;-76
2022/01/01 09:37:08;;;;;;;;;;;20.50;38.80;;;;;;489507;242;1113;-76
2022/01/01 09:39:08;;;;;;;;;;;20.30;38.90;;;;;;489801;242;1922;-76
2022/01/01 09:41:09;;;;;;;;;;;20.30;39.10;;;;;;489598;242;2197;-76
2022/01/01 09:43:11;;;;;;;;;;;20.30;39.00;;;;;;489696;242;1066;-76
2022/01/01 09:45:12;;;;;;;;;;;20.70;38.70;;;;;;489664;242;957;-76
2022/01/01 09:47:13;;;;;;;;;;;20.40;38.80;;;;;;489676;242;1208;-76
2022/01/01 09:49:15;;;;;;;;;;;20.70;38.50;;;;;;489695;242;936;-76
2022/01/01 09:51:16;;;;;;;;;;;20.60;38.80;;;;;;489594;242;1428;-76
2022/01/01 09:53:18;;;;;;;;;;;20.60;38.90;;;;;;489602;242;1339;-76
2022/01/01 09:55:19;;;;;;;;;;;20.40;39.20;;;;;;489733;242;1052;-76
2022/01/01 09:57:20;;;;;;;;;;;20.60;38.50;;;;;;489689;242;1413;-76
2022/01/01 09:59:22;;;;;;;;;;;20.60;38.70;;;;;;489699;242;949;-76
2022/01/01 10:01:23;;;;;;;;;;;20.50;38.90;;;;;;489624;242;2114;-76
2022/01/01 10:03:24;;;;;;;;;;;20.90;38.60;;;;;;489656;242;1060;-76
2022/01/01 10:05:26;;;;;;;;;;;20.50;38.70;;;;;;489781;242;982;-76
2022/01/01 10:07:27;;;;;;;;;;;20.70;38.70;;;;;;489671;242;1142;-76
2022/01/01 10:09:28;;;;;;;;;;;20.50;38.70;;;;;;489719;242;939;-76
2022/01/01 10:11:31;;;;;;;;;;;20.50;39.00;;;;;;489626;242;1252;-76
2022/01/01 10:13:32;;;;;;;;;;;20.30;39.30;;;;;;489696;242;964;-76
2022/01/01 10:15:33;;;;;;;;;;;20.40;39.20;;;;;;489665;242;1215;-76
2022/01/01 10:17:34;;;;;;;;;;;20.30;39.30;;;;;;489636;242;1190;-75
2022/01/01 10:19:36;;;;;;;;;;;20.60;38.80;;;;;;489657;242;1157;-76
2022/01/01 10:21:41;;;;;;;;;;;20.50;38.70;;;;;;489569;242;2125;-76
2022/01/01 10:23:39;;;;;;;;;;;20.50;38.90;;;;;;489706;242;1358;-75
2022/01/01 10:27:59;;;;;;;;;;;20.60;38.70;;;;;;489717;241;1267;-75
2022/01/01 10:30:00;;;;;;;;;;;20.60;38.90;;;;;;489672;242;938;-76
2022/01/01 10:32:01;;;;;;;;;;;20.30;39.10;;;;;;489520;242;1121;-76
2022/01/01 10:34:03;;;;;;;;;;;20.70;38.70;;;;;;489616;242;1111;-76
2022/01/01 10:36:06;;;;;;;;;;;20.50;38.90;;;;;;489589;242;947;-76
2022/01/01 10:38:06;;;;;;;;;;;20.60;38.80;;;;;;489642;242;1450;-76
2022/01/01 10:40:07;;;;;;;;;;;20.40;39.10;;;;;;489666;242;940;-76
2022/01/01 10:42:09;;;;;;;;;;;20.50;39.00;;;;;;489539;242;2118;-76
2022/01/01 10:44:11;;;;;;;;;;;20.50;38.80;;;;;;489640;242;1161;-76
2022/01/01 10:46:11;;;;;;;;;;;20.60;38.80;;;;;;489673;242;1397;-76
2022/01/01 10:48:22;;;;;;;;;;;20.40;39.10;;;;;;489795;242;1069;-76
2022/01/01 10:50:20;;;;;;;;;;;20.30;39.30;;;;;;489840;242;1451;-76
2022/01/01 10:52:22;;;;;;;;;;;20.50;39.20;;;;;;489627;242;1275;-76
2022/01/01 10:54:23;;;;;;;;;;;20.40;39.10;;;;;;489673;242;995;-76
2022/01/01 10:56:25;;;;;;;;;;;20.40;39.10;;;;;;489699;242;1059;-76
2022/01/01 10:58:26;;;;;;;;;;;20.40;39.20;;;;;;489666;242;966;-76
2022/01/01 11:00:27;;;;;;;;;;;20.60;39.10;;;;;;489678;242;954;-76
2022/01/01 11:02:29;;;;;;;;;;;20.40;39.40;;;;;;489702;242;2126;-76
2022/01/01 11:04:30;;;;;;;;;;;20.90;38.70;;;;;;489679;242;959;-76
2022/01/01 11:06:32;;;;;;;;;;;20.50;38.90;;;;;;489683;242;1313;-76
2022/01/01 11:08:34;;;;;;;;;;;20.70;39.00;;;;;;489618;242;1198;-76
2022/01/01 11:10:35;;;;;;;;;;;20.50;38.90;;;;;;489694;242;1297;-76
2022/01/01 11:12:36;;;;;;;;;;;20.60;39.10;;;;;;489782;242;1072;-75
2022/01/01 11:14:38;;;;;;;;;;;20.50;39.40;;;;;;489702;242;950;-76
2022/01/01 11:16:39;;;;;;;;;;;20.40;39.30;;;;;;489631;242;1332;-76
2022/01/01 11:18:40;;;;;;;;;;;20.40;39.40;;;;;;489699;242;942;-76
2022/01/01 11:20:42;;;;;;;;;;;20.30;39.50;;;;;;489660;242;1085;-75
2022/01/01 11:22:43;;;;;;;;;;;20.30;39.40;;;;;;489540;242;2141;-76
2022/01/01 11:24:44;;;;;;;;;;;20.40;39.50;;;;;;489707;242;965;-75
2022/01/01 11:26:46;;;;;;;;;;;20.40;39.60;;;;;;489638;242;1130;-75
2022/01/01 11:28:47;;;;;;;;;;;20.30;39.80;;;;;;489655;242;1092;-76
2022/01/01 11:30:48;;;;;;;;;;;20.40;39.60;;;;;;489681;242;1170;-76
2022/01/01 11:32:50;;;;;;;;;;;20.30;39.80;;;;;;489656;242;1101;-76
2022/01/01 11:34:51;;;;;;;;;;;20.50;39.60;;;;;;489708;242;942;-76
2022/01/01 11:36:52;;;;;;;;;;;20.50;39.30;;;;;;489640;242;1095;-76
2022/01/01 11:38:54;;;;;;;;;;;20.60;39.50;;;;;;489734;242;1250;-76
2022/01/01 11:40:55;;;;;;;;;;;21.00;38.80;;;;;;489641;242;1205;-76
2022/01/01 11:42:56;;;;;;;;;;;20.60;39.20;;;;;;489796;242;2189;-76
2022/01/01 11:44:59;;;;;;;;;;;20.40;39.80;;;;;;489683;242;1044;-76
2022/01/01 11:46:59;;;;;;;;;;;20.30;40.00;;;;;;489596;242;1470;-76
2022/01/01 11:49:00;;;;;;;;;;;20.30;40.00;;;;;;489759;242;1010;-76
2022/01/01 11:51:02;;;;;;;;;;;20.30;40.10;;;;;;489679;242;1245;-76
2022/01/01 11:53:03;;;;;;;;;;;20.80;39.50;;;;;;489566;242;1109;-76
2022/01/01 11:55:04;;;;;;;;;;;20.50;39.60;;;;;;489640;242;948;-76
2022/01/01 11:57:06;;;;;;;;;;;20.40;39.90;;;;;;489635;242;1110;-76
2022/01/01 11:59:07;;;;;;;;;;;20.60;39.80;;;;;;489703;242;936;-76
2022/01/01 12:01:09;;;;;;;;;;;20.50;39.60;;;;;;489613;242;1260;-76